createdAt,value
2023-12-28T00:00:18.659Z,20.24
2023-12-28T00:01:18.674Z,20.24
2023-12-28T00:02:18.662Z,20.20
2023-12-28T00:03:18.768Z,20.19
2023-12-28T00:04:18.819Z,20.21
2023-12-28T00:05:18.814Z,20.21
2023-12-28T00:06:19.024Z,20.23
2023-12-28T00:07:18.955Z,20.22
2023-12-28T00:08:19.028Z,20.23
2023-12-28T00:09:19.112Z,20.21
2023-12-28T00:10:19.145Z,20.22
2023-12-28T00:11:19.214Z,20.23
2023-12-28T00:12:19.327Z,20.22
2023-12-28T00:13:19.316Z,20.23
2023-12-28T00:14:19.371Z,20.22
2023-12-28T00:15:19.462Z,20.20
2023-12-28T00:16:19.461Z,20.21
2023-12-28T00:17:19.535Z,20.23
2023-12-28T00:18:22.490Z,20.20
2023-12-28T00:19:19.763Z,20.22
2023-12-28T00:20:19.656Z,20.23
2023-12-28T00:21:19.746Z,20.21
2023-12-28T00:22:19.677Z,20.24
2023-12-28T00:23:19.693Z,20.21
2023-12-28T00:24:19.752Z,20.23
2023-12-28T00:25:19.716Z,20.23
2023-12-28T00:26:19.721Z,20.25
2023-12-28T00:27:19.760Z,20.22
2023-12-28T00:28:19.756Z,20.18
2023-12-28T00:29:19.787Z,20.18
2023-12-28T00:30:19.914Z,20.17
2023-12-28T00:31:19.941Z,20.20
2023-12-28T00:32:19.830Z,20.21
2023-12-28T00:33:19.927Z,20.22
2023-12-28T00:34:19.986Z,20.24
2023-12-28T00:35:19.924Z,20.20
2023-12-28T00:36:19.975Z,20.22
2023-12-28T00:37:19.926Z,20.20
2023-12-28T00:38:19.948Z,20.21
2023-12-28T00:39:20.006Z,20.20
2023-12-28T00:40:19.981Z,20.18
2023-12-28T00:41:19.996Z,20.18
2023-12-28T00:42:20.089Z,20.17
2023-12-28T00:43:20.037Z,20.17
2023-12-28T00:44:20.063Z,20.18
2023-12-28T00:45:20.117Z,20.19
2023-12-28T00:46:20.094Z,20.20
2023-12-28T00:47:20.095Z,20.18
2023-12-28T00:48:20.249Z,20.15
2023-12-28T00:49:20.303Z,20.18
2023-12-28T00:50:20.158Z,20.15
2023-12-28T00:51:20.213Z,20.20
2023-12-28T00:52:20.201Z,20.20
2023-12-28T00:53:20.213Z,20.22
2023-12-28T00:54:20.357Z,20.18
2023-12-28T00:55:20.329Z,20.19
2023-12-28T00:56:20.380Z,20.15
2023-12-28T00:57:20.448Z,20.18
2023-12-28T00:58:20.462Z,20.16
2023-12-28T00:59:20.512Z,20.17
2023-12-28T01:00:20.578Z,20.19
2023-12-28T01:01:20.755Z,20.19
2023-12-28T01:02:20.689Z,20.18
2023-12-28T01:03:20.811Z,20.19
2023-12-28T01:04:20.836Z,20.19
2023-12-28T01:05:20.820Z,20.18
2023-12-28T01:06:21.069Z,20.15
2023-12-28T01:07:20.949Z,20.20
2023-12-28T01:08:20.984Z,20.17
2023-12-28T01:09:21.101Z,20.14
2023-12-28T01:10:21.110Z,20.18
2023-12-28T01:11:21.136Z,20.16
2023-12-28T01:12:21.219Z,20.17
2023-12-28T01:13:21.289Z,20.15
2023-12-28T01:14:21.350Z,20.13
2023-12-28T01:15:21.441Z,20.16
2023-12-28T01:16:21.482Z,20.14
2023-12-28T01:17:21.536Z,20.14
2023-12-28T01:18:21.708Z,20.16
2023-12-28T01:19:21.740Z,20.16
2023-12-28T01:20:21.692Z,20.18
2023-12-28T01:21:21.740Z,20.15
2023-12-28T01:22:21.792Z,20.16
2023-12-28T01:23:21.829Z,20.15
2023-12-28T01:24:21.900Z,20.14
2023-12-28T01:25:21.914Z,20.14
2023-12-28T01:26:21.985Z,20.13
2023-12-28T01:27:22.048Z,20.14
2023-12-28T01:28:22.074Z,20.12
2023-12-28T01:29:22.135Z,20.14
2023-12-28T01:30:22.266Z,20.13
2023-12-28T01:31:22.305Z,20.13
2023-12-28T01:32:22.288Z,20.15
2023-12-28T01:33:22.383Z,20.12
2023-12-28T01:34:22.442Z,20.12
2023-12-28T01:35:22.441Z,20.10
2023-12-28T01:36:22.538Z,20.10
2023-12-28T01:37:22.546Z,20.06
2023-12-28T01:38:22.612Z,20.10
2023-12-28T01:39:22.722Z,20.09
2023-12-28T01:40:22.754Z,20.09
2023-12-28T01:41:22.792Z,20.11
2023-12-28T01:42:22.933Z,20.08
2023-12-28T01:43:22.914Z,20.10
2023-12-28T01:44:23.046Z,20.06
2023-12-28T01:45:23.127Z,20.07
2023-12-28T01:46:23.079Z,20.07
2023-12-28T01:47:23.145Z,20.06
2023-12-28T01:48:23.315Z,20.04
2023-12-28T01:49:23.301Z,20.06
2023-12-28T01:50:23.304Z,20.05
2023-12-28T01:51:23.383Z,20.04
2023-12-28T01:52:23.472Z,20.07
2023-12-28T01:53:23.510Z,20.04
2023-12-28T01:54:23.707Z,20.06
2023-12-28T01:55:23.668Z,20.08
2023-12-28T01:56:23.738Z,20.05
2023-12-28T01:57:23.869Z,20.06
2023-12-28T01:58:23.869Z,20.06
2023-12-28T01:59:23.944Z,20.07
2023-12-28T02:00:24.029Z,20.04
2023-12-28T02:01:24.186Z,20.02
2023-12-28T02:02:24.154Z,20.02
2023-12-28T02:03:24.260Z,19.96
2023-12-28T02:04:24.350Z,19.99
2023-12-28T02:05:24.321Z,20.02
2023-12-28T02:06:24.537Z,20.00
2023-12-28T02:07:24.479Z,19.99
2023-12-28T02:08:24.546Z,19.99
2023-12-28T02:09:24.755Z,19.95
2023-12-28T02:10:24.683Z,19.95
2023-12-28T02:11:24.723Z,19.95
2023-12-28T02:12:24.797Z,19.95
2023-12-28T02:13:24.792Z,19.92
2023-12-28T02:14:24.857Z,19.92
2023-12-28T02:15:24.986Z,19.92
2023-12-28T02:16:24.971Z,19.92
2023-12-28T02:17:25.102Z,19.91
2023-12-28T02:18:25.207Z,19.92
2023-12-28T02:19:25.205Z,19.92
2023-12-28T02:20:25.270Z,19.89
2023-12-28T02:21:25.320Z,19.94
2023-12-28T02:22:25.395Z,19.95
2023-12-28T02:23:25.449Z,19.94
2023-12-28T02:24:25.559Z,19.94
2023-12-28T02:25:25.588Z,19.91
2023-12-28T02:26:25.640Z,19.93
2023-12-28T02:27:25.723Z,19.94
2023-12-28T02:28:25.799Z,19.89
2023-12-28T02:29:25.860Z,19.93
2023-12-28T02:30:26.232Z,19.92
2023-12-28T02:31:26.338Z,19.93
2023-12-28T02:32:26.152Z,19.89
2023-12-28T02:33:26.263Z,19.90
2023-12-28T02:34:26.382Z,19.90
2023-12-28T02:35:26.324Z,19.91
2023-12-28T02:36:26.462Z,19.89
2023-12-28T02:37:26.479Z,19.90
2023-12-28T02:38:26.528Z,19.88
2023-12-28T02:39:26.610Z,19.88
2023-12-28T02:40:26.669Z,19.88
2023-12-28T02:41:26.718Z,19.91
2023-12-28T02:42:26.779Z,19.87
2023-12-28T02:43:26.790Z,19.87
2023-12-28T02:44:26.862Z,19.92
2023-12-28T02:45:27.021Z,19.89
2023-12-28T02:46:26.986Z,19.88
2023-12-28T02:47:27.101Z,19.90
2023-12-28T02:48:27.234Z,19.87
2023-12-28T02:49:27.172Z,19.87
2023-12-28T02:50:27.169Z,19.88
2023-12-28T02:51:27.331Z,19.89
2023-12-28T02:52:27.291Z,19.86
2023-12-28T02:53:27.372Z,19.86
2023-12-28T02:54:27.500Z,19.88
2023-12-28T02:55:27.527Z,19.86
2023-12-28T02:56:27.597Z,19.84
2023-12-28T02:57:27.714Z,19.85
2023-12-28T02:58:27.751Z,19.83
2023-12-28T02:59:27.807Z,19.85
2023-12-28T03:00:27.903Z,19.83
2023-12-28T03:01:28.001Z,19.84
2023-12-28T03:02:28.009Z,19.85
2023-12-28T03:03:28.253Z,19.85
2023-12-28T03:04:28.215Z,19.82
2023-12-28T03:05:28.308Z,19.82
2023-12-28T03:06:28.365Z,19.82
2023-12-28T03:07:28.386Z,19.83
2023-12-28T03:08:28.451Z,19.79
2023-12-28T03:09:28.552Z,19.80
2023-12-28T03:10:28.605Z,19.83
2023-12-28T03:11:28.651Z,19.81
2023-12-28T03:12:28.774Z,19.81
2023-12-28T03:13:28.763Z,19.81
2023-12-28T03:14:28.863Z,19.84
2023-12-28T03:15:29.000Z,19.84
2023-12-28T03:16:29.038Z,19.83
2023-12-28T03:17:29.084Z,19.82
2023-12-28T03:18:29.324Z,19.85
2023-12-28T03:19:29.419Z,19.78
2023-12-28T03:20:29.260Z,19.81
2023-12-28T03:21:29.500Z,19.82
2023-12-28T03:22:29.478Z,19.88
2023-12-28T03:23:29.621Z,19.84
2023-12-28T03:24:29.645Z,19.79
2023-12-28T03:25:29.584Z,19.77
2023-12-28T03:26:29.688Z,19.82
2023-12-28T03:27:29.767Z,19.82
2023-12-28T03:28:29.816Z,19.85
2023-12-28T03:29:29.930Z,19.84
2023-12-28T03:30:30.049Z,19.79
2023-12-28T03:31:30.200Z,19.79
2023-12-28T03:32:30.186Z,19.80
2023-12-28T03:33:30.303Z,19.82
2023-12-28T03:34:30.353Z,19.82
2023-12-28T03:35:30.362Z,19.81
2023-12-28T03:36:30.464Z,19.78
2023-12-28T03:37:30.521Z,19.82
2023-12-28T03:38:30.611Z,19.80
2023-12-28T03:39:30.711Z,19.82
2023-12-28T03:40:30.798Z,19.81
2023-12-28T03:41:30.872Z,19.82
2023-12-28T03:42:30.979Z,19.80
2023-12-28T03:43:31.006Z,19.80
2023-12-28T03:44:31.091Z,19.78
2023-12-28T03:45:31.195Z,19.82
2023-12-28T03:46:31.233Z,19.80
2023-12-28T03:47:31.351Z,19.80
2023-12-28T03:48:31.599Z,19.82
2023-12-28T03:49:31.569Z,19.77
2023-12-28T03:50:31.601Z,19.77
2023-12-28T03:51:31.715Z,19.76
2023-12-28T03:52:31.866Z,19.76
2023-12-28T03:53:31.849Z,19.75
2023-12-28T03:54:31.972Z,19.75
2023-12-28T03:55:32.061Z,19.77
2023-12-28T03:56:32.123Z,19.76
2023-12-28T03:57:32.235Z,19.78
2023-12-28T03:58:32.291Z,19.77
2023-12-28T03:59:32.380Z,19.75
2023-12-28T04:00:32.472Z,19.74
2023-12-28T04:01:32.533Z,19.76
2023-12-28T04:02:32.578Z,19.73
2023-12-28T04:03:32.671Z,19.75
2023-12-28T04:04:32.825Z,19.77
2023-12-28T04:05:32.805Z,19.72
2023-12-28T04:06:32.844Z,19.73
2023-12-28T04:07:32.904Z,19.78
2023-12-28T04:08:32.952Z,19.71
2023-12-28T04:09:33.076Z,19.75
2023-12-28T04:10:33.251Z,19.73
2023-12-28T04:11:33.191Z,19.70
2023-12-28T04:12:33.276Z,19.70
2023-12-28T04:13:33.327Z,19.71
2023-12-28T04:14:33.411Z,19.73
2023-12-28T04:15:33.564Z,19.70
2023-12-28T04:16:33.595Z,19.70
2023-12-28T04:17:33.770Z,19.69
2023-12-28T04:18:33.871Z,19.71
2023-12-28T04:19:33.889Z,19.66
2023-12-28T04:20:33.906Z,19.69
2023-12-28T04:21:34.009Z,19.65
2023-12-28T04:22:34.065Z,19.64
2023-12-28T04:23:34.131Z,19.65
2023-12-28T04:24:34.307Z,19.62
2023-12-28T04:25:34.262Z,19.63
2023-12-28T04:26:34.355Z,19.60
2023-12-28T04:27:34.457Z,19.59
2023-12-28T04:28:34.532Z,19.56
2023-12-28T04:29:34.652Z,19.62
2023-12-28T04:30:34.763Z,19.60
2023-12-28T04:31:34.942Z,19.58
2023-12-28T04:32:42.313Z,19.66
2023-12-28T04:33:42.268Z,19.62
2023-12-28T04:34:42.215Z,19.62
2023-12-28T04:35:42.166Z,19.60
2023-12-28T04:36:42.152Z,19.61
2023-12-28T04:37:42.122Z,19.65
2023-12-28T04:38:42.096Z,19.66
2023-12-28T04:39:42.117Z,19.65
2023-12-28T04:40:42.056Z,19.65
2023-12-28T04:41:42.063Z,19.64
2023-12-28T04:42:42.083Z,19.64
2023-12-28T04:43:41.997Z,19.65
2023-12-28T04:44:42.009Z,19.66
2023-12-28T04:45:42.003Z,19.67
2023-12-28T04:46:41.957Z,19.67
2023-12-28T04:47:41.988Z,19.68
2023-12-28T04:48:42.046Z,19.63
2023-12-28T04:49:42.051Z,19.67
2023-12-28T04:50:41.870Z,19.68
2023-12-28T04:51:41.894Z,19.65
2023-12-28T04:52:41.841Z,19.66
2023-12-28T04:53:41.812Z,19.67
2023-12-28T04:54:41.814Z,19.65
2023-12-28T04:55:41.779Z,19.67
2023-12-28T04:56:41.771Z,19.68
2023-12-28T04:57:41.778Z,19.67
2023-12-28T04:58:41.712Z,19.67
2023-12-28T04:59:41.766Z,19.65
2023-12-28T05:00:41.853Z,19.67
2023-12-28T05:01:41.741Z,19.61
2023-12-28T05:02:41.640Z,19.58
2023-12-28T05:03:41.710Z,19.65
2023-12-28T05:04:41.721Z,19.60
2023-12-28T05:05:41.656Z,19.64
2023-12-28T05:06:41.598Z,19.65
2023-12-28T05:07:41.553Z,19.62
2023-12-28T05:08:41.528Z,19.64
2023-12-28T05:09:41.561Z,19.66
2023-12-28T05:10:41.510Z,19.64
2023-12-28T05:11:41.531Z,19.68
2023-12-28T05:12:44.631Z,19.69
2023-12-28T05:13:41.522Z,19.70
2023-12-28T05:14:41.504Z,19.64
2023-12-28T05:15:41.464Z,19.63
2023-12-28T05:16:41.452Z,19.63
2023-12-28T05:17:41.501Z,19.65
2023-12-28T05:18:41.549Z,19.66
2023-12-28T05:19:41.445Z,19.66
2023-12-28T05:20:41.345Z,19.67
2023-12-28T05:21:41.365Z,19.65
2023-12-28T05:22:41.320Z,19.69
2023-12-28T05:23:41.274Z,19.64
2023-12-28T05:24:41.317Z,19.64
2023-12-28T05:25:41.250Z,19.67
2023-12-28T05:26:41.219Z,19.64
2023-12-28T05:27:41.289Z,19.61
2023-12-28T05:28:41.190Z,19.64
2023-12-28T05:29:41.152Z,19.65
2023-12-28T05:30:41.210Z,19.62
2023-12-28T05:31:41.256Z,19.64
2023-12-28T05:32:41.270Z,19.62
2023-12-28T05:33:41.115Z,19.67
2023-12-28T05:34:41.110Z,19.67
2023-12-28T05:35:41.010Z,19.60
2023-12-28T05:36:41.042Z,19.62
2023-12-28T05:37:40.988Z,19.65
2023-12-28T05:38:40.980Z,19.64
2023-12-28T05:39:40.995Z,19.60
2023-12-28T05:40:40.939Z,19.56
2023-12-28T05:41:40.897Z,19.56
2023-12-28T05:42:40.917Z,19.58
2023-12-28T05:43:40.882Z,19.57
2023-12-28T05:44:40.865Z,19.57
2023-12-28T05:45:40.885Z,19.56
2023-12-28T05:46:40.838Z,19.58
2023-12-28T05:47:40.920Z,19.58
2023-12-28T05:48:40.892Z,19.59
2023-12-28T05:49:40.900Z,19.58
2023-12-28T05:50:40.769Z,19.56
2023-12-28T05:51:40.836Z,19.58
2023-12-28T05:52:40.744Z,19.56
2023-12-28T05:53:40.704Z,19.52
2023-12-28T05:54:40.778Z,19.51
2023-12-28T05:55:40.666Z,19.53
2023-12-28T05:56:40.648Z,19.56
2023-12-28T05:57:40.673Z,19.53
2023-12-28T05:58:40.638Z,19.52
2023-12-28T05:59:40.611Z,19.52
2023-12-28T06:00:40.663Z,19.51
2023-12-28T06:01:40.593Z,19.49
2023-12-28T06:02:40.545Z,19.49
2023-12-28T06:03:40.638Z,19.50
2023-12-28T06:04:40.738Z,19.46
2023-12-28T06:05:40.514Z,19.51
2023-12-28T06:06:40.560Z,19.57
2023-12-28T06:07:40.487Z,19.58
2023-12-28T06:08:40.454Z,19.59
2023-12-28T06:09:40.493Z,19.59
2023-12-28T06:10:40.430Z,19.56
2023-12-28T06:11:40.438Z,19.55
2023-12-28T06:12:40.447Z,19.60
2023-12-28T06:13:40.392Z,19.57
2023-12-28T06:14:40.349Z,19.56
2023-12-28T06:15:40.480Z,19.61
2023-12-28T06:16:40.337Z,19.62
2023-12-28T06:17:40.379Z,19.56
2023-12-28T06:18:40.406Z,19.53
2023-12-28T06:19:40.370Z,19.53
2023-12-28T06:20:40.276Z,19.51
2023-12-28T06:21:40.277Z,19.52
2023-12-28T06:22:40.256Z,19.52
2023-12-28T06:23:40.222Z,19.53
2023-12-28T06:24:40.250Z,19.53
2023-12-28T06:25:40.204Z,19.53
2023-12-28T06:26:40.178Z,19.48
2023-12-28T06:27:40.230Z,19.49
2023-12-28T06:28:40.145Z,19.52
2023-12-28T06:29:40.133Z,19.47
2023-12-28T06:30:40.207Z,19.46
2023-12-28T06:31:40.572Z,19.49
2023-12-28T06:32:40.139Z,19.50
2023-12-28T06:33:40.305Z,19.47
2023-12-28T06:34:40.155Z,19.45
2023-12-28T06:35:40.038Z,19.43
2023-12-28T06:36:40.157Z,19.43
2023-12-28T06:37:39.997Z,19.43
2023-12-28T06:38:39.994Z,19.45
2023-12-28T06:39:40.060Z,19.38
2023-12-28T06:40:40.029Z,19.38
2023-12-28T06:41:40.050Z,19.39
2023-12-28T06:42:40.104Z,19.44
2023-12-28T06:43:40.065Z,19.45
2023-12-28T06:44:40.061Z,19.49
2023-12-28T06:45:40.171Z,19.50
2023-12-28T06:46:40.093Z,19.45
2023-12-28T06:47:40.127Z,19.45
2023-12-28T06:48:40.222Z,19.46
2023-12-28T06:49:40.351Z,19.44
2023-12-28T06:50:40.128Z,19.44
2023-12-28T06:51:40.173Z,19.45
2023-12-28T06:52:40.147Z,19.44
2023-12-28T06:53:40.147Z,19.45
2023-12-28T06:54:40.191Z,19.45
2023-12-28T06:55:40.170Z,19.49
2023-12-28T06:56:40.186Z,19.48
2023-12-28T06:57:40.234Z,19.46
2023-12-28T06:58:40.253Z,19.51
2023-12-28T06:59:40.219Z,19.47
2023-12-28T07:00:40.331Z,19.48
2023-12-28T07:01:40.237Z,19.50
2023-12-28T07:02:40.276Z,19.48
2023-12-28T07:03:40.352Z,19.49
2023-12-28T07:04:40.303Z,19.49
2023-12-28T07:05:40.350Z,19.47
2023-12-28T07:06:40.370Z,19.47
2023-12-28T07:07:40.285Z,19.47
2023-12-28T07:08:40.305Z,19.43
2023-12-28T07:09:40.349Z,19.45
2023-12-28T07:10:40.321Z,19.46
2023-12-28T07:11:40.306Z,19.46
2023-12-28T07:12:40.359Z,19.46
2023-12-28T07:13:40.305Z,19.45
2023-12-28T07:14:40.324Z,19.43
2023-12-28T07:15:40.441Z,19.47
2023-12-28T07:16:40.333Z,19.44
2023-12-28T07:17:40.466Z,19.44
2023-12-28T07:18:40.503Z,19.44
2023-12-28T07:19:40.483Z,19.43
2023-12-28T07:20:40.391Z,19.43
2023-12-28T07:21:40.391Z,19.41
2023-12-28T07:22:40.383Z,19.47
2023-12-28T07:23:40.382Z,19.48
2023-12-28T07:24:40.463Z,19.43
2023-12-28T07:25:40.422Z,19.46
2023-12-28T07:26:40.418Z,19.43
2023-12-28T07:27:40.459Z,19.45
2023-12-28T07:28:40.441Z,19.46
2023-12-28T07:29:40.453Z,19.46
2023-12-28T07:30:40.497Z,19.46
2023-12-28T07:31:40.517Z,19.47
2023-12-28T07:32:40.488Z,19.49
2023-12-28T07:33:40.576Z,19.43
2023-12-28T07:34:40.634Z,19.46
2023-12-28T07:35:40.575Z,19.42
2023-12-28T07:36:40.540Z,19.46
2023-12-28T07:37:40.513Z,19.42
2023-12-28T07:38:40.530Z,19.43
2023-12-28T07:39:40.570Z,19.41
2023-12-28T07:40:40.553Z,19.39
2023-12-28T07:41:40.566Z,19.42
2023-12-28T07:42:40.580Z,19.45
2023-12-28T07:43:40.582Z,19.41
2023-12-28T07:44:40.596Z,19.45
2023-12-28T07:45:40.650Z,19.41
2023-12-28T07:46:40.669Z,19.44
2023-12-28T07:47:40.697Z,19.46
2023-12-28T07:48:40.696Z,19.46
2023-12-28T07:49:40.748Z,19.44
2023-12-28T07:50:40.652Z,19.47
2023-12-28T07:51:40.719Z,19.43
2023-12-28T07:52:40.702Z,19.45
2023-12-28T07:53:40.716Z,19.42
2023-12-28T07:54:40.827Z,19.45
2023-12-28T07:55:40.714Z,19.41
2023-12-28T07:56:40.728Z,19.46
2023-12-28T07:57:40.757Z,19.42
2023-12-28T07:58:40.732Z,19.39
2023-12-28T07:59:40.747Z,19.42
2023-12-28T08:00:40.959Z,19.42
2023-12-28T08:01:40.844Z,19.44
2023-12-28T08:02:40.782Z,19.48
2023-12-28T08:03:40.831Z,19.45
2023-12-28T08:04:40.871Z,19.43
2023-12-28T08:05:40.865Z,19.46
2023-12-28T08:06:40.908Z,19.48
2023-12-28T08:07:40.803Z,19.48
2023-12-28T08:08:40.811Z,19.50
2023-12-28T08:09:40.873Z,19.46
2023-12-28T08:10:40.824Z,19.48
2023-12-28T08:11:40.830Z,19.47
2023-12-28T08:12:40.842Z,19.47
2023-12-28T08:13:40.810Z,19.51
2023-12-28T08:14:40.811Z,19.48
2023-12-28T08:15:40.975Z,19.45
2023-12-28T08:16:40.844Z,19.48
2023-12-28T08:17:40.852Z,19.45
2023-12-28T08:18:40.923Z,19.45
2023-12-28T08:19:40.900Z,19.44
2023-12-28T08:20:40.877Z,19.43
2023-12-28T08:21:40.868Z,19.47
2023-12-28T08:22:40.871Z,19.49
2023-12-28T08:23:40.893Z,19.46
2023-12-28T08:24:40.910Z,19.50
2023-12-28T08:25:40.926Z,19.49
2023-12-28T08:26:40.890Z,19.46
2023-12-28T08:27:40.932Z,19.48
2023-12-28T08:28:40.932Z,19.53
2023-12-28T08:29:40.925Z,19.49
2023-12-28T08:30:41.038Z,19.45
2023-12-28T08:31:42.190Z,19.49
2023-12-28T08:32:41.046Z,19.51
2023-12-28T08:33:41.079Z,19.52
2023-12-28T08:34:41.127Z,19.50
2023-12-28T08:35:41.061Z,19.50
2023-12-28T08:36:41.006Z,19.50
2023-12-28T08:37:40.989Z,19.49
2023-12-28T08:38:40.980Z,19.51
2023-12-28T08:39:41.058Z,19.51
2023-12-28T08:40:41.003Z,19.53
2023-12-28T08:41:41.009Z,19.51
2023-12-28T08:42:41.086Z,19.51
2023-12-28T08:43:41.013Z,19.51
2023-12-28T08:44:41.023Z,19.53
2023-12-28T08:45:41.055Z,19.52
2023-12-28T08:46:41.022Z,19.54
2023-12-28T08:47:41.040Z,19.55
2023-12-28T08:48:41.203Z,19.56
2023-12-28T08:49:41.109Z,19.56
2023-12-28T08:50:41.041Z,19.58
2023-12-28T08:51:43.630Z,19.58
2023-12-28T08:54:07.352Z,20.33
2023-12-28T08:54:45.397Z,19.71
2023-12-28T08:55:45.347Z,19.64
2023-12-28T08:56:46.540Z,19.64
2023-12-28T08:57:45.396Z,19.65
2023-12-28T08:58:45.294Z,19.63
2023-12-28T08:59:45.289Z,19.60
2023-12-28T09:00:45.315Z,19.61
2023-12-28T09:01:45.292Z,19.61
2023-12-28T09:02:45.339Z,19.61
2023-12-28T09:03:45.317Z,19.58
2023-12-28T09:04:45.204Z,19.59
2023-12-28T09:05:45.168Z,19.62
2023-12-28T09:06:45.220Z,19.62
2023-12-28T09:07:45.167Z,19.62
2023-12-28T09:08:45.098Z,19.65
2023-12-28T09:09:45.143Z,19.67
2023-12-28T09:10:45.069Z,19.66
2023-12-28T09:11:45.035Z,19.66
2023-12-28T09:12:45.168Z,19.68
2023-12-28T09:13:45.001Z,19.67
2023-12-28T09:14:44.972Z,19.69
2023-12-28T09:15:45.005Z,19.71
2023-12-28T09:16:44.923Z,19.71
2023-12-28T09:17:45.017Z,19.70
2023-12-28T09:18:45.031Z,19.72
2023-12-28T09:19:44.948Z,19.74
2023-12-28T09:20:44.830Z,19.75
2023-12-28T09:21:44.885Z,19.76
2023-12-28T09:22:44.847Z,19.74
2023-12-28T09:23:44.822Z,19.74
2023-12-28T09:24:44.891Z,19.76
2023-12-28T09:25:44.811Z,19.74
2023-12-28T09:26:44.810Z,19.72
2023-12-28T09:27:44.824Z,19.72
2023-12-28T09:28:44.838Z,19.75
2023-12-28T09:29:44.835Z,19.74
2023-12-28T09:30:44.855Z,19.77
2023-12-28T09:31:44.894Z,19.76
2023-12-28T09:32:44.793Z,19.78
2023-12-28T09:33:44.938Z,19.81
2023-12-28T09:34:44.827Z,19.78
2023-12-28T09:35:47.727Z,19.83
2023-12-28T09:36:44.784Z,19.86
2023-12-28T09:37:44.766Z,19.85
2023-12-28T09:38:44.725Z,19.87
2023-12-28T09:39:45.079Z,19.82
2023-12-28T09:40:44.702Z,19.87
2023-12-28T09:41:44.686Z,19.86
2023-12-28T09:42:44.686Z,19.84
2023-12-28T09:43:44.641Z,19.85
2023-12-28T09:44:44.637Z,19.84
2023-12-28T09:45:44.643Z,19.87
2023-12-28T09:46:44.602Z,19.90
2023-12-28T09:47:44.603Z,19.94
2023-12-28T09:48:44.727Z,19.92
2023-12-28T09:49:44.667Z,19.92
2023-12-28T09:50:44.540Z,19.95
2023-12-28T09:51:44.591Z,19.95
2023-12-28T09:52:44.505Z,19.94
2023-12-28T09:53:44.483Z,19.98
2023-12-28T09:54:44.564Z,19.97
2023-12-28T09:55:44.469Z,19.97
2023-12-28T09:56:44.473Z,20.01
2023-12-28T09:57:44.468Z,19.98
2023-12-28T09:58:44.422Z,19.98
2023-12-28T09:59:44.406Z,20.02
2023-12-28T10:00:44.415Z,20.00
2023-12-28T10:01:44.380Z,20.02
2023-12-28T10:02:44.367Z,20.02
2023-12-28T10:03:44.406Z,20.02
2023-12-28T10:04:44.399Z,20.01
2023-12-28T10:05:44.402Z,20.02
2023-12-28T10:06:44.350Z,20.04
2023-12-28T10:07:45.772Z,20.04
2023-12-28T10:08:44.437Z,20.02
2023-12-28T10:09:44.414Z,20.04
2023-12-28T10:10:44.404Z,20.03
2023-12-28T10:11:44.397Z,20.07
2023-12-28T10:12:44.375Z,20.01
2023-12-28T10:13:44.363Z,19.98
2023-12-28T10:14:44.341Z,20.01
2023-12-28T10:15:44.373Z,20.03
2023-12-28T10:16:44.341Z,20.01
2023-12-28T10:17:44.355Z,19.97
2023-12-28T10:18:44.412Z,20.01
2023-12-28T10:19:44.476Z,20.03
2023-12-28T10:20:44.321Z,20.07
2023-12-28T10:21:44.325Z,20.06
2023-12-28T10:22:44.282Z,20.04
2023-12-28T10:23:44.298Z,20.03
2023-12-28T10:24:44.347Z,20.02
2023-12-28T10:25:44.286Z,20.04
2023-12-28T10:26:44.253Z,20.10
2023-12-28T10:27:44.323Z,20.12
2023-12-28T10:28:44.230Z,20.12
2023-12-28T10:29:44.232Z,20.14
2023-12-28T10:30:44.354Z,20.17
2023-12-28T10:31:44.305Z,20.21
2023-12-28T10:32:44.354Z,20.21
2023-12-28T10:33:44.400Z,20.22
2023-12-28T10:34:44.215Z,20.16
2023-12-28T10:35:44.165Z,20.14
2023-12-28T10:36:44.185Z,20.13
2023-12-28T10:37:45.641Z,20.11
2023-12-28T10:38:44.138Z,20.10
2023-12-28T10:39:44.154Z,20.11
2023-12-28T10:40:44.129Z,20.08
2023-12-28T10:41:44.097Z,20.09
2023-12-28T10:42:44.165Z,20.09
2023-12-28T10:43:44.075Z,20.09
2023-12-28T10:44:44.077Z,20.11
2023-12-28T10:45:44.206Z,20.06
2023-12-28T10:46:44.074Z,20.05
2023-12-28T10:47:44.109Z,20.00
2023-12-28T10:48:44.151Z,19.99
2023-12-28T10:49:44.161Z,20.03
2023-12-28T10:50:44.067Z,20.00
2023-12-28T10:51:44.068Z,20.02
2023-12-28T10:52:43.979Z,20.00
2023-12-28T10:53:43.984Z,20.04
2023-12-28T10:54:43.981Z,20.04
2023-12-28T10:55:43.948Z,20.04
2023-12-28T10:56:44.036Z,20.04
2023-12-28T10:57:43.973Z,20.06
2023-12-28T10:58:43.922Z,20.06
2023-12-28T10:59:43.913Z,20.05
2023-12-28T11:00:43.948Z,20.03
2023-12-28T11:01:43.896Z,19.99
2023-12-28T11:02:43.866Z,20.05
2023-12-28T11:03:43.876Z,20.08
2023-12-28T11:04:44.007Z,20.08
2023-12-28T11:05:43.902Z,20.07
2023-12-28T11:06:43.880Z,20.06
2023-12-28T11:07:43.880Z,20.07
2023-12-28T11:08:43.848Z,20.10
2023-12-28T11:09:43.918Z,20.07
2023-12-28T11:10:43.780Z,20.09
2023-12-28T11:11:43.843Z,20.09
2023-12-28T11:12:43.912Z,20.03
2023-12-28T11:13:43.732Z,20.06
2023-12-28T11:14:43.791Z,20.08
2023-12-28T11:15:43.820Z,20.09
2023-12-28T11:16:43.713Z,20.10
2023-12-28T11:17:43.776Z,20.13
2023-12-28T11:18:43.721Z,20.15
2023-12-28T11:19:43.657Z,20.19
2023-12-28T11:20:43.645Z,20.22
2023-12-28T11:21:43.801Z,20.22
2023-12-28T11:22:43.584Z,20.21
2023-12-28T11:23:43.573Z,20.22
2023-12-28T11:24:43.588Z,20.21
2023-12-28T11:25:43.556Z,20.23
2023-12-28T11:26:43.510Z,20.26
2023-12-28T11:27:43.559Z,20.33
2023-12-28T11:28:43.500Z,20.35
2023-12-28T11:29:43.478Z,20.33
2023-12-28T11:30:43.535Z,20.31
2023-12-28T11:31:43.478Z,20.28
2023-12-28T11:32:43.528Z,20.29
2023-12-28T11:33:43.573Z,20.26
2023-12-28T11:34:43.597Z,20.25
2023-12-28T11:35:43.414Z,20.29
2023-12-28T11:36:43.403Z,20.32
2023-12-28T11:37:43.355Z,20.27
2023-12-28T11:38:43.345Z,20.21
2023-12-28T11:39:43.377Z,20.23
2023-12-28T11:40:44.818Z,20.19
2023-12-28T11:41:43.407Z,20.22
2023-12-28T11:42:43.478Z,20.24
2023-12-28T11:43:43.401Z,20.25
2023-12-28T11:44:43.376Z,20.24
2023-12-28T11:45:43.510Z,20.23
2023-12-28T11:46:45.445Z,20.25
2023-12-28T11:47:43.489Z,20.27
2023-12-28T11:48:43.521Z,20.27
2023-12-28T11:49:43.543Z,20.29
2023-12-28T11:50:43.375Z,20.34
2023-12-28T11:51:43.369Z,20.37
2023-12-28T11:52:45.507Z,20.41
2023-12-28T11:53:43.383Z,20.40
2023-12-28T11:54:43.387Z,20.41
2023-12-28T11:55:43.385Z,20.40
2023-12-28T11:56:43.387Z,20.40
2023-12-28T11:57:43.537Z,20.40
2023-12-28T11:58:43.354Z,20.34
2023-12-28T11:59:43.435Z,20.29
2023-12-28T12:00:43.505Z,20.27
2023-12-28T12:01:43.510Z,20.26
2023-12-28T12:02:43.385Z,20.28
2023-12-28T12:03:43.442Z,20.25
2023-12-28T12:04:43.419Z,20.21
2023-12-28T12:05:43.368Z,20.23
2023-12-28T12:06:43.388Z,20.23
2023-12-28T12:07:43.360Z,20.22
2023-12-28T12:08:43.421Z,20.21
2023-12-28T12:09:43.367Z,20.17
2023-12-28T12:10:43.311Z,20.15
2023-12-28T12:11:43.304Z,20.15
2023-12-28T12:12:43.309Z,20.17
2023-12-28T12:13:43.288Z,20.16
2023-12-28T12:14:43.288Z,20.16
2023-12-28T12:15:43.281Z,20.11
2023-12-28T12:16:43.235Z,20.08
2023-12-28T12:17:43.279Z,20.07
2023-12-28T12:18:43.313Z,20.11
2023-12-28T12:19:43.376Z,20.12
2023-12-28T12:20:43.261Z,20.09
2023-12-28T12:21:43.189Z,20.07
2023-12-28T12:22:43.145Z,20.10
2023-12-28T12:23:43.163Z,20.07
2023-12-28T12:24:43.224Z,20.05
2023-12-28T12:25:43.176Z,20.07
2023-12-28T12:26:43.160Z,20.07
2023-12-28T12:27:43.232Z,20.07
2023-12-28T12:28:44.631Z,20.06
2023-12-28T12:29:43.176Z,20.05
2023-12-28T12:30:43.186Z,20.08
2023-12-28T12:31:43.206Z,20.07
2023-12-28T12:32:43.201Z,20.06
2023-12-28T12:33:43.147Z,20.14
2023-12-28T12:34:43.130Z,20.22
2023-12-28T12:35:43.060Z,20.29
2023-12-28T12:36:43.054Z,20.36
2023-12-28T12:37:43.033Z,20.40
2023-12-28T12:38:43.033Z,20.39
2023-12-28T12:39:43.034Z,20.41
2023-12-28T12:40:42.984Z,20.41
2023-12-28T12:41:42.981Z,20.44
2023-12-28T12:42:43.014Z,20.48
2023-12-28T12:43:42.950Z,20.49
2023-12-28T12:44:43.014Z,20.43
2023-12-28T12:45:43.204Z,20.45
2023-12-28T12:46:42.874Z,20.47
2023-12-28T12:47:42.940Z,20.46
2023-12-28T12:48:43.018Z,20.47
2023-12-28T12:49:42.896Z,20.46
2023-12-28T12:50:42.822Z,20.47
2023-12-28T12:51:42.844Z,20.51
2023-12-28T12:52:42.809Z,20.53
2023-12-28T12:53:42.794Z,20.50